sensor_id;sensor_type;location;lat;lon;timestamp;pressure;altitude;pressure_sealevel;temperature;humidity
6433;BME280;3249;42.690;23.260;2023-03-14T00:00:09;94438.84;;;1.21;100.00
6433;BME280;3249;42.690;23.260;2023-03-14T00:02:42;94433.34;;;1.33;100.00
6433;BME280;3249;42.690;23.260;2023-03-14T00:05:11;94448.34;;;1.11;100.00
6433;BME280;3249;42.690;23.260;2023-03-14T00:07:40;94443.88;;;0.97;100.00
6433;BME280;3249;42.690;23.260;2023-03-14T00:10:12;94441.34;;;1.05;100.00
6433;BME280;3249;42.690;23.260;2023-03-14T00:12:42;94438.16;;;0.95;100.00
6433;BME280;3249;42.690;23.260;2023-03-14T00:15:11;94425.81;;;1.00;100.00
6433;BME280;3249;42.690;23.260;2023-03-14T00:17:43;94425.47;;;0.87;100.00
6433;BME280;3249;42.690;23.260;2023-03-14T00:20:12;94420.31;;;0.55;100.00
6433;BME280;3249;42.690;23.260;2023-03-14T00:22:41;94420.75;;;0.50;100.00
6433;BME280;3249;42.690;23.260;2023-03-14T00:25:11;94405.94;;;0.30;100.00
6433;BME280;3249;42.690;23.260;2023-03-14T00:27:40;94409.78;;;0.42;100.00
6433;BME280;3249;42.690;23.260;2023-03-14T00:30:12;94406.44;;;0.75;100.00
6433;BME280;3249;42.690;23.260;2023-03-14T00:32:44;94405.38;;;0.85;100.00
6433;BME280;3249;42.690;23.260;2023-03-14T00:35:13;94400.91;;;0.87;100.00
6433;BME280;3249;42.690;23.260;2023-03-14T00:37:42;94397.75;;;0.85;100.00
6433;BME280;3249;42.690;23.260;2023-03-14T00:40:11;94402.53;;;0.88;100.00
6433;BME280;3249;42.690;23.260;2023-03-14T00:42:40;94397.47;;;0.88;100.00
6433;BME280;3249;42.690;23.260;2023-03-14T00:45:10;94379.06;;;0.78;100.00
6433;BME280;3249;42.690;23.260;2023-03-14T00:47:39;94399.84;;;0.90;100.00
6433;BME280;3249;42.690;23.260;2023-03-14T00:50:14;94400.28;;;0.85;100.00
6433;BME280;3249;42.690;23.260;2023-03-14T00:52:45;94409.00;;;0.83;100.00
6433;BME280;3249;42.690;23.260;2023-03-14T00:55:15;94395.06;;;0.79;100.00
6433;BME280;3249;42.690;23.260;2023-03-14T00:57:43;94397.59;;;0.79;100.00
6433;BME280;3249;42.690;23.260;2023-03-14T01:00:14;94388.94;;;0.48;100.00
6433;BME280;3249;42.690;23.260;2023-03-14T01:02:43;94392.09;;;0.50;100.00
6433;BME280;3249;42.690;23.260;2023-03-14T01:05:15;94396.63;;;0.72;100.00
6433;BME280;3249;42.690;23.260;2023-03-14T01:07:44;94385.88;;;0.78;100.00
6433;BME280;3249;42.690;23.260;2023-03-14T01:10:13;94387.91;;;0.74;100.00
6433;BME280;3249;42.690;23.260;2023-03-14T01:12:42;94370.13;;;0.50;100.00
6433;BME280;3249;42.690;23.260;2023-03-14T01:15:11;94380.78;;;0.70;100.00
6433;BME280;3249;42.690;23.260;2023-03-14T01:17:40;94373.78;;;0.56;100.00
6433;BME280;3249;42.690;23.260;2023-03-14T01:20:11;94368.13;;;0.70;100.00
6433;BME280;3249;42.690;23.260;2023-03-14T01:22:44;94360.06;;;0.74;100.00
6433;BME280;3249;42.690;23.260;2023-03-14T01:25:15;94368.16;;;0.86;100.00
6433;BME280;3249;42.690;23.260;2023-03-14T01:27:44;94364.19;;;0.83;100.00
6433;BME280;3249;42.690;23.260;2023-03-14T01:30:14;94369.25;;;0.83;100.00
6433;BME280;3249;42.690;23.260;2023-03-14T01:32:43;94345.59;;;0.51;100.00
6433;BME280;3249;42.690;23.260;2023-03-14T01:35:12;94358.56;;;0.48;100.00
6433;BME280;3249;42.690;23.260;2023-03-14T01:37:44;94356.00;;;0.40;100.00
6433;BME280;3249;42.690;23.260;2023-03-14T01:40:18;94350.22;;;0.22;100.00
6433;BME280;3249;42.690;23.260;2023-03-14T01:42:54;94332.78;;;0.44;100.00
6433;BME280;3249;42.690;23.260;2023-03-14T01:48:22;94341.41;;;0.34;100.00
6433;BME280;3249;42.690;23.260;2023-03-14T01:50:51;94337.91;;;0.19;100.00
6433;BME280;3249;42.690;23.260;2023-03-14T01:53:23;94336.78;;;0.21;100.00
6433;BME280;3249;42.690;23.260;2023-03-14T01:55:53;94333.41;;;0.46;100.00
6433;BME280;3249;42.690;23.260;2023-03-14T01:58:25;94337.38;;;0.57;100.00
6433;BME280;3249;42.690;23.260;2023-03-14T02:00:57;94337.38;;;0.57;100.00
6433;BME280;3249;42.690;23.260;2023-03-14T02:03:29;94336.34;;;0.34;100.00
6433;BME280;3249;42.690;23.260;2023-03-14T02:06:05;94326.22;;;0.34;100.00
6433;BME280;3249;42.690;23.260;2023-03-14T02:08:40;94330.09;;;0.04;100.00
6433;BME280;3249;42.690;23.260;2023-03-14T02:11:16;94316.03;;;0.17;100.00
6433;BME280;3249;42.690;23.260;2023-03-14T02:13:54;94321.47;;;0.23;100.00
6433;BME280;3249;42.690;23.260;2023-03-14T02:16:53;94324.75;;;0.23;100.00
6433;BME280;3249;42.690;23.260;2023-03-14T02:19:55;94323.22;;;0.30;100.00
6433;BME280;3249;42.690;23.260;2023-03-14T02:22:37;94319.56;;;0.25;100.00
6433;BME280;3249;42.690;23.260;2023-03-14T02:25:14;94322.75;;;0.27;100.00
6433;BME280;3249;42.690;23.260;2023-03-14T02:27:48;94299.31;;;0.25;100.00
6433;BME280;3249;42.690;23.260;2023-03-14T02:30:19;94330.94;;;0.21;100.00
6433;BME280;3249;42.690;23.260;2023-03-14T02:32:52;94330.81;;;-0.04;100.00
6433;BME280;3249;42.690;23.260;2023-03-14T02:35:25;94328.06;;;-0.18;100.00
6433;BME280;3249;42.690;23.260;2023-03-14T02:38:00;94332.81;;;0.11;100.00
6433;BME280;3249;42.690;23.260;2023-03-14T02:40:36;94331.56;;;0.15;100.00
6433;BME280;3249;42.690;23.260;2023-03-14T02:43:09;94327.69;;;-0.31;100.00
6433;BME280;3249;42.690;23.260;2023-03-14T02:45:44;94337.34;;;-0.52;100.00
6433;BME280;3249;42.690;23.260;2023-03-14T02:48:20;94331.75;;;-0.64;100.00
6433;BME280;3249;42.690;23.260;2023-03-14T02:50:52;94322.47;;;-0.81;100.00
6433;BME280;3249;42.690;23.260;2023-03-14T02:53:25;94328.63;;;-0.58;100.00
6433;BME280;3249;42.690;23.260;2023-03-14T02:55:58;94334.31;;;-0.56;100.00
6433;BME280;3249;42.690;23.260;2023-03-14T02:58:32;94327.13;;;-0.68;100.00
6433;BME280;3249;42.690;23.260;2023-03-14T03:01:09;94332.78;;;-0.49;100.00
6433;BME280;3249;42.690;23.260;2023-03-14T03:03:38;94337.56;;;-0.46;100.00
6433;BME280;3249;42.690;23.260;2023-03-14T03:06:07;94328.13;;;-0.36;100.00
6433;BME280;3249;42.690;23.260;2023-03-14T03:08:36;94329.41;;;-0.32;100.00
6433;BME280;3249;42.690;23.260;2023-03-14T03:11:06;94326.75;;;-0.30;100.00
6433;BME280;3249;42.690;23.260;2023-03-14T03:13:38;94330.69;;;-0.28;100.00
6433;BME280;3249;42.690;23.260;2023-03-14T03:16:08;94336.59;;;-0.19;100.00
6433;BME280;3249;42.690;23.260;2023-03-14T03:18:39;94327.75;;;-0.23;100.00
6433;BME280;3249;42.690;23.260;2023-03-14T03:21:08;94322.06;;;-0.17;100.00
6433;BME280;3249;42.690;23.260;2023-03-14T03:23:37;94319.59;;;-0.35;100.00
6433;BME280;3249;42.690;23.260;2023-03-14T03:26:08;94321.09;;;-0.50;100.00
6433;BME280;3249;42.690;23.260;2023-03-14T03:28:40;94326.50;;;-0.19;100.00
6433;BME280;3249;42.690;23.260;2023-03-14T03:31:12;94310.97;;;-0.24;100.00
6433;BME280;3249;42.690;23.260;2023-03-14T03:33:41;94320.22;;;-0.07;100.00
6433;BME280;3249;42.690;23.260;2023-03-14T03:36:10;94326.06;;;-0.07;100.00
6433;BME280;3249;42.690;23.260;2023-03-14T03:38:40;94324.34;;;-0.06;100.00
6433;BME280;3249;42.690;23.260;2023-03-14T03:41:09;94331.13;;;-0.07;100.00
6433;BME280;3249;42.690;23.260;2023-03-14T03:43:40;94330.75;;;-0.20;100.00
6433;BME280;3249;42.690;23.260;2023-03-14T03:46:12;94326.75;;;-0.56;100.00
6433;BME280;3249;42.690;23.260;2023-03-14T03:48:41;94335.13;;;-0.55;100.00
6433;BME280;3249;42.690;23.260;2023-03-14T03:51:12;94330.78;;;-0.63;100.00
6433;BME280;3249;42.690;23.260;2023-03-14T03:53:42;94332.44;;;-0.79;100.00
6433;BME280;3249;42.690;23.260;2023-03-14T03:56:14;94329.78;;;-0.95;100.00
6433;BME280;3249;42.690;23.260;2023-03-14T03:58:46;94332.09;;;-0.76;100.00
6433;BME280;3249;42.690;23.260;2023-03-14T04:01:17;94315.69;;;-0.98;100.00
6433;BME280;3249;42.690;23.260;2023-03-14T04:03:49;94304.59;;;-1.05;100.00
6433;BME280;3249;42.690;23.260;2023-03-14T04:06:19;94333.94;;;-0.86;100.00
6433;BME280;3249;42.690;23.260;2023-03-14T04:08:49;94331.63;;;-0.97;100.00
6433;BME280;3249;42.690;23.260;2023-03-14T04:11:30;94333.22;;;-0.96;100.00
6433;BME280;3249;42.690;23.260;2023-03-14T04:14:25;94312.31;;;-1.24;100.00
6433;BME280;3249;42.690;23.260;2023-03-14T04:17:05;94319.09;;;-1.24;100.00
6433;BME280;3249;42.690;23.260;2023-03-14T04:19:34;94310.94;;;-1.18;100.00
6433;BME280;3249;42.690;23.260;2023-03-14T04:22:03;94310.56;;;-1.06;100.00
6433;BME280;3249;42.690;23.260;2023-03-14T04:24:37;94304.28;;;-1.02;100.00
6433;BME280;3249;42.690;23.260;2023-03-14T04:27:06;94305.97;;;-1.10;100.00
6433;BME280;3249;42.690;23.260;2023-03-14T04:29:38;94298.63;;;-1.21;100.00
6433;BME280;3249;42.690;23.260;2023-03-14T04:32:07;94301.34;;;-1.32;100.00
6433;BME280;3249;42.690;23.260;2023-03-14T04:34:38;94301.63;;;-1.35;100.00
6433;BME280;3249;42.690;23.260;2023-03-14T04:37:07;94295.94;;;-1.20;100.00
6433;BME280;3249;42.690;23.260;2023-03-14T04:39:40;94291.09;;;-1.13;100.00
6433;BME280;3249;42.690;23.260;2023-03-14T04:42:23;94282.22;;;-1.00;100.00
6433;BME280;3249;42.690;23.260;2023-03-14T04:44:55;94283.09;;;-1.09;100.00
6433;BME280;3249;42.690;23.260;2023-03-14T04:47:26;94283.03;;;-1.17;100.00
6433;BME280;3249;42.690;23.260;2023-03-14T04:49:55;94289.50;;;-0.97;100.00
6433;BME280;3249;42.690;23.260;2023-03-14T04:52:25;94281.78;;;-0.95;100.00
6433;BME280;3249;42.690;23.260;2023-03-14T04:54:55;94280.69;;;-0.93;100.00
6433;BME280;3249;42.690;23.260;2023-03-14T04:57:25;94280.94;;;-1.04;100.00
6433;BME280;3249;42.690;23.260;2023-03-14T04:59:57;94276.22;;;-0.99;100.00
6433;BME280;3249;42.690;23.260;2023-03-14T05:02:44;94284.19;;;-0.86;100.00
6433;BME280;3249;42.690;23.260;2023-03-14T05:05:16;94275.81;;;-0.69;100.00
6433;BME280;3249;42.690;23.260;2023-03-14T05:08:11;94279.06;;;-0.51;100.00
6433;BME280;3249;42.690;23.260;2023-03-14T05:10:52;94274.09;;;-0.35;100.00
6433;BME280;3249;42.690;23.260;2023-03-14T05:13:33;94280.94;;;-0.27;100.00
6433;BME280;3249;42.690;23.260;2023-03-14T05:16:10;94286.56;;;0.00;100.00
6433;BME280;3249;42.690;23.260;2023-03-14T05:18:57;94279.94;;;-0.01;100.00
6433;BME280;3249;42.690;23.260;2023-03-14T05:21:50;94286.25;;;-0.05;100.00
6433;BME280;3249;42.690;23.260;2023-03-14T05:24:39;94279.66;;;0.11;100.00
6433;BME280;3249;42.690;23.260;2023-03-14T05:27:20;94282.09;;;0.28;100.00
6433;BME280;3249;42.690;23.260;2023-03-14T05:30:27;94277.78;;;0.21;100.00
6433;BME280;3249;42.690;23.260;2023-03-14T05:33:09;94284.34;;;0.47;100.00
6433;BME280;3249;42.690;23.260;2023-03-14T05:36:01;94286.75;;;0.73;100.00
6433;BME280;3249;42.690;23.260;2023-03-14T05:38:42;94285.50;;;0.85;100.00
6433;BME280;3249;42.690;23.260;2023-03-14T05:41:37;94297.25;;;0.94;100.00
6433;BME280;3249;42.690;23.260;2023-03-14T05:44:17;94283.63;;;0.87;100.00
6433;BME280;3249;42.690;23.260;2023-03-14T05:47:02;94286.47;;;0.84;100.00
6433;BME280;3249;42.690;23.260;2023-03-14T05:49:50;94280.59;;;0.75;100.00
6433;BME280;3249;42.690;23.260;2023-03-14T05:52:54;94289.63;;;0.86;100.00
6433;BME280;3249;42.690;23.260;2023-03-14T05:55:29;94293.91;;;0.93;100.00
6433;BME280;3249;42.690;23.260;2023-03-14T05:58:18;94292.63;;;0.81;100.00
6433;BME280;3249;42.690;23.260;2023-03-14T06:00:47;94289.94;;;0.75;100.00
6433;BME280;3249;42.690;23.260;2023-03-14T06:03:28;94294.38;;;0.89;100.00
6433;BME280;3249;42.690;23.260;2023-03-14T06:06:00;94294.22;;;1.06;99.96
6433;BME280;3249;42.690;23.260;2023-03-14T06:08:30;94284.25;;;0.97;100.00
6433;BME280;3249;42.690;23.260;2023-03-14T06:11:02;94286.94;;;0.95;100.00
6433;BME280;3249;42.690;23.260;2023-03-14T06:13:31;94280.13;;;1.04;100.00
6433;BME280;3249;42.690;23.260;2023-03-14T06:16:00;94289.16;;;1.14;99.92
6433;BME280;3249;42.690;23.260;2023-03-14T06:18:30;94286.13;;;1.43;97.41
6433;BME280;3249;42.690;23.260;2023-03-14T06:21:02;94289.44;;;1.59;95.99
6433;BME280;3249;42.690;23.260;2023-03-14T06:23:32;94298.72;;;1.83;91.21
6433;BME280;3249;42.690;23.260;2023-03-14T06:26:02;94299.72;;;1.74;92.95
6433;BME280;3249;42.690;23.260;2023-03-14T06:28:31;94307.53;;;2.11;90.00
6433;BME280;3249;42.690;23.260;2023-03-14T06:31:03;94296.13;;;2.37;89.34
6433;BME280;3249;42.690;23.260;2023-03-14T06:33:40;94298.63;;;2.15;86.81
6433;BME280;3249;42.690;23.260;2023-03-14T06:36:12;94285.47;;;2.11;88.63
6433;BME280;3249;42.690;23.260;2023-03-14T06:38:43;94299.47;;;2.38;88.67
6433;BME280;3249;42.690;23.260;2023-03-14T06:41:13;94297.47;;;2.25;85.19
6433;BME280;3249;42.690;23.260;2023-03-14T06:43:44;94288.69;;;2.36;84.86
6433;BME280;3249;42.690;23.260;2023-03-14T06:46:14;94290.53;;;2.72;82.04
6433;BME280;3249;42.690;23.260;2023-03-14T06:48:44;94257.50;;;2.72;80.73
6433;BME280;3249;42.690;23.260;2023-03-14T06:51:15;94282.13;;;3.17;80.52
6433;BME280;3249;42.690;23.260;2023-03-14T06:53:45;94272.53;;;3.41;76.80
6433;BME280;3249;42.690;23.260;2023-03-14T06:56:16;94270.53;;;3.51;78.17
6433;BME280;3249;42.690;23.260;2023-03-14T06:58:45;94271.69;;;3.78;76.86
6433;BME280;3249;42.690;23.260;2023-03-14T07:01:20;94260.03;;;3.83;77.50
6433;BME280;3249;42.690;23.260;2023-03-14T07:03:50;94270.47;;;4.17;72.39
6433;BME280;3249;42.690;23.260;2023-03-14T07:06:24;94256.94;;;4.17;69.29
6433;BME280;3249;42.690;23.260;2023-03-14T07:08:55;94273.47;;;4.06;69.94
6433;BME280;3249;42.690;23.260;2023-03-14T07:11:24;94271.53;;;3.94;70.15
6433;BME280;3249;42.690;23.260;2023-03-14T07:13:53;94272.25;;;3.88;70.96
6433;BME280;3249;42.690;23.260;2023-03-14T07:16:22;94274.25;;;4.07;69.84
6433;BME280;3249;42.690;23.260;2023-03-14T07:18:54;94273.88;;;4.24;68.60
6433;BME280;3249;42.690;23.260;2023-03-14T07:21:27;94280.13;;;4.22;69.91
6433;BME280;3249;42.690;23.260;2023-03-14T07:23:57;94278.09;;;4.32;70.94
6433;BME280;3249;42.690;23.260;2023-03-14T07:26:26;94256.53;;;4.49;68.47
6433;BME280;3249;42.690;23.260;2023-03-14T07:28:56;94248.31;;;4.18;68.42
6433;BME280;3249;42.690;23.260;2023-03-14T07:31:26;94260.69;;;4.35;68.54
6433;BME280;3249;42.690;23.260;2023-03-14T07:33:58;94262.38;;;4.64;66.74
6433;BME280;3249;42.690;23.260;2023-03-14T07:36:34;94254.56;;;4.65;65.39
6433;BME280;3249;42.690;23.260;2023-03-14T07:39:04;94242.75;;;4.79;63.08
6433;BME280;3249;42.690;23.260;2023-03-14T07:41:33;94254.88;;;4.41;67.82
6433;BME280;3249;42.690;23.260;2023-03-14T07:44:20;94255.09;;;4.61;67.33
6433;BME280;3249;42.690;23.260;2023-03-14T07:46:50;94256.56;;;4.91;64.76
6433;BME280;3249;42.690;23.260;2023-03-14T07:49:19;94245.69;;;5.03;62.56
6433;BME280;3249;42.690;23.260;2023-03-14T07:51:50;94254.69;;;5.21;61.99
6433;BME280;3249;42.690;23.260;2023-03-14T07:54:20;94254.16;;;4.83;64.09
6433;BME280;3249;42.690;23.260;2023-03-14T07:56:51;94242.84;;;4.92;64.28
6433;BME280;3249;42.690;23.260;2023-03-14T07:59:20;94239.25;;;4.86;63.12
6433;BME280;3249;42.690;23.260;2023-03-14T08:01:49;94244.16;;;5.09;62.20
6433;BME280;3249;42.690;23.260;2023-03-14T08:04:18;94234.28;;;4.99;61.48
6433;BME280;3249;42.690;23.260;2023-03-14T08:06:50;94240.25;;;5.34;58.78
6433;BME280;3249;42.690;23.260;2023-03-14T08:09:20;94237.00;;;5.47;57.28
6433;BME280;3249;42.690;23.260;2023-03-14T08:11:49;94217.56;;;5.46;57.74
6433;BME280;3249;42.690;23.260;2023-03-14T08:14:18;94241.16;;;5.54;57.32
6433;BME280;3249;42.690;23.260;2023-03-14T08:16:50;94230.97;;;5.27;58.54
6433;BME280;3249;42.690;23.260;2023-03-14T08:19:20;94197.09;;;5.12;58.89
6433;BME280;3249;42.690;23.260;2023-03-14T08:21:53;94241.31;;;5.46;57.08
6433;BME280;3249;42.690;23.260;2023-03-14T08:24:23;94244.47;;;5.48;56.64
6433;BME280;3249;42.690;23.260;2023-03-14T08:26:52;94244.72;;;5.81;55.77
6433;BME280;3249;42.690;23.260;2023-03-14T08:29:21;94242.81;;;5.96;54.35
6433;BME280;3249;42.690;23.260;2023-03-14T08:31:50;94238.22;;;6.19;53.12
6433;BME280;3249;42.690;23.260;2023-03-14T08:34:20;94237.50;;;6.31;51.03
6433;BME280;3249;42.690;23.260;2023-03-14T08:36:52;94229.78;;;6.18;50.68
6433;BME280;3249;42.690;23.260;2023-03-14T08:39:22;94224.19;;;6.42;49.87
6433;BME280;3249;42.690;23.260;2023-03-14T08:41:51;94218.97;;;6.16;50.38
6433;BME280;3249;42.690;23.260;2023-03-14T08:44:21;94215.50;;;6.30;50.98
6433;BME280;3249;42.690;23.260;2023-03-14T08:46:50;94186.03;;;6.47;48.76
6433;BME280;3249;42.690;23.260;2023-03-14T08:49:22;94182.56;;;6.68;48.12
6433;BME280;3249;42.690;23.260;2023-03-14T08:51:53;94204.94;;;6.59;48.78
6433;BME280;3249;42.690;23.260;2023-03-14T08:54:23;94199.28;;;6.77;49.02
6433;BME280;3249;42.690;23.260;2023-03-14T08:56:52;94190.81;;;6.89;48.69
6433;BME280;3249;42.690;23.260;2023-03-14T08:59:21;94197.16;;;7.06;46.26
6433;BME280;3249;42.690;23.260;2023-03-14T09:01:50;94184.94;;;7.08;45.86
6433;BME280;3249;42.690;23.260;2023-03-14T09:04:21;94191.78;;;7.47;45.18
6433;BME280;3249;42.690;23.260;2023-03-14T09:06:53;94172.72;;;7.30;43.05
6433;BME280;3249;42.690;23.260;2023-03-14T09:09:23;94173.50;;;7.43;43.62
6433;BME280;3249;42.690;23.260;2023-03-14T09:11:53;94143.53;;;7.50;43.08
6433;BME280;3249;42.690;23.260;2023-03-14T09:14:22;94173.59;;;7.81;41.12
6433;BME280;3249;42.690;23.260;2023-03-14T09:16:51;94171.25;;;7.79;41.31
6433;BME280;3249;42.690;23.260;2023-03-14T09:19:20;94150.47;;;8.00;41.35
6433;BME280;3249;42.690;23.260;2023-03-14T09:21:49;94162.00;;;7.78;39.21
6433;BME280;3249;42.690;23.260;2023-03-14T09:24:21;94161.59;;;7.81;41.48
6433;BME280;3249;42.690;23.260;2023-03-14T09:26:50;94156.69;;;7.73;39.64
6433;BME280;3249;42.690;23.260;2023-03-14T09:29:19;94150.66;;;8.05;39.00
6433;BME280;3249;42.690;23.260;2023-03-14T09:31:48;94148.75;;;7.88;38.77
6433;BME280;3249;42.690;23.260;2023-03-14T09:34:17;94145.94;;;8.02;38.58
6433;BME280;3249;42.690;23.260;2023-03-14T09:36:49;94139.97;;;8.21;38.36
6433;BME280;3249;42.690;23.260;2023-03-14T09:39:18;94148.50;;;8.46;37.94
6433;BME280;3249;42.690;23.260;2023-03-14T09:41:51;94128.91;;;8.58;37.38
6433;BME280;3249;42.690;23.260;2023-03-14T09:44:26;94132.72;;;8.80;37.01
6433;BME280;3249;42.690;23.260;2023-03-14T09:47:00;94128.69;;;8.91;36.37
6433;BME280;3249;42.690;23.260;2023-03-14T09:49:32;94112.75;;;8.82;36.22
6433;BME280;3249;42.690;23.260;2023-03-14T09:52:06;94110.53;;;9.10;35.69
6433;BME280;3249;42.690;23.260;2023-03-14T09:54:43;94122.09;;;9.19;35.24
6433;BME280;3249;42.690;23.260;2023-03-14T09:57:17;94106.06;;;9.24;35.61
6433;BME280;3249;42.690;23.260;2023-03-14T09:59:47;94107.16;;;9.34;34.83
6433;BME280;3249;42.690;23.260;2023-03-14T10:02:19;94104.09;;;9.44;35.16
6433;BME280;3249;42.690;23.260;2023-03-14T10:04:50;94099.03;;;9.74;34.82
6433;BME280;3249;42.690;23.260;2023-03-14T10:07:25;94094.31;;;9.71;34.51
6433;BME280;3249;42.690;23.260;2023-03-14T10:09:56;94071.56;;;9.38;34.58
6433;BME280;3249;42.690;23.260;2023-03-14T10:12:36;94085.25;;;9.86;34.09
6433;BME280;3249;42.690;23.260;2023-03-14T10:15:08;94066.75;;;9.96;33.57
6433;BME280;3249;42.690;23.260;2023-03-14T10:17:42;94067.41;;;9.73;34.08
6433;BME280;3249;42.690;23.260;2023-03-14T10:20:28;94061.75;;;9.83;33.87
6433;BME280;3249;42.690;23.260;2023-03-14T10:23:00;94056.41;;;10.32;33.68
6433;BME280;3249;42.690;23.260;2023-03-14T10:25:32;94054.88;;;10.54;32.21
6433;BME280;3249;42.690;23.260;2023-03-14T10:28:04;94043.13;;;10.46;32.15
6433;BME280;3249;42.690;23.260;2023-03-14T10:30:39;94043.75;;;10.30;32.36
6433;BME280;3249;42.690;23.260;2023-03-14T10:33:12;94035.63;;;10.45;31.95
6433;BME280;3249;42.690;23.260;2023-03-14T10:35:52;94032.09;;;10.69;32.38
6433;BME280;3249;42.690;23.260;2023-03-14T10:38:24;94019.66;;;11.00;30.81
6433;BME280;3249;42.690;23.260;2023-03-14T10:40:55;94024.94;;;11.17;28.65
6433;BME280;3249;42.690;23.260;2023-03-14T10:43:31;94010.69;;;10.68;29.60
6433;BME280;3249;42.690;23.260;2023-03-14T10:46:06;94000.44;;;10.80;30.11
6433;BME280;3249;42.690;23.260;2023-03-14T10:48:57;94000.94;;;11.16;29.91
6433;BME280;3249;42.690;23.260;2023-03-14T10:51:27;93985.41;;;11.11;30.12
6433;BME280;3249;42.690;23.260;2023-03-14T10:53:58;93985.06;;;11.08;30.26
6433;BME280;3249;42.690;23.260;2023-03-14T10:56:34;93977.41;;;11.36;30.22
6433;BME280;3249;42.690;23.260;2023-03-14T10:59:13;93940.13;;;11.27;30.16
6433;BME280;3249;42.690;23.260;2023-03-14T11:01:49;93975.75;;;11.58;29.88
6433;BME280;3249;42.690;23.260;2023-03-14T11:04:41;93947.16;;;11.31;30.36
6433;BME280;3249;42.690;23.260;2023-03-14T11:07:19;93950.13;;;11.51;31.07
6433;BME280;3249;42.690;23.260;2023-03-14T11:09:57;93963.94;;;11.85;30.50
6433;BME280;3249;42.690;23.260;2023-03-14T11:12:44;93951.44;;;11.93;30.60
6433;BME280;3249;42.690;23.260;2023-03-14T11:15:24;93945.13;;;12.01;31.88
6433;BME280;3249;42.690;23.260;2023-03-14T11:18:12;93934.34;;;12.04;30.96
6433;BME280;3249;42.690;23.260;2023-03-14T11:20:51;93924.00;;;11.87;32.75
6433;BME280;3249;42.690;23.260;2023-03-14T11:23:23;93916.59;;;11.91;32.90
6433;BME280;3249;42.690;23.260;2023-03-14T11:25:57;93906.03;;;12.09;32.57
6433;BME280;3249;42.690;23.260;2023-03-14T11:28:36;93910.50;;;12.46;31.95
6433;BME280;3249;42.690;23.260;2023-03-14T11:31:16;93883.19;;;12.50;32.01
6433;BME280;3249;42.690;23.260;2023-03-14T11:33:51;93900.53;;;12.71;31.63
6433;BME280;3249;42.690;23.260;2023-03-14T11:36:28;93888.47;;;12.77;31.93
6433;BME280;3249;42.690;23.260;2023-03-14T11:39:00;93890.06;;;12.61;32.18
6433;BME280;3249;42.690;23.260;2023-03-14T11:41:31;93873.19;;;12.54;32.02
6433;BME280;3249;42.690;23.260;2023-03-14T11:44:07;93870.69;;;12.80;31.89
6433;BME280;3249;42.690;23.260;2023-03-14T11:46:46;93867.53;;;12.95;31.50
6433;BME280;3249;42.690;23.260;2023-03-14T11:49:26;93858.22;;;12.94;32.27
6433;BME280;3249;42.690;23.260;2023-03-14T11:52:01;93857.63;;;13.08;32.46
6433;BME280;3249;42.690;23.260;2023-03-14T11:54:35;93860.03;;;13.15;32.36
6433;BME280;3249;42.690;23.260;2023-03-14T11:57:12;93856.78;;;13.03;31.30
6433;BME280;3249;42.690;23.260;2023-03-14T11:59:49;93842.97;;;13.14;31.93
6433;BME280;3249;42.690;23.260;2023-03-14T12:02:27;93839.72;;;13.23;31.67
6433;BME280;3249;42.690;23.260;2023-03-14T12:05:32;93838.03;;;13.34;31.63
6433;BME280;3249;42.690;23.260;2023-03-14T12:11:14;93829.44;;;13.55;30.25
6433;BME280;3249;42.690;23.260;2023-03-14T12:13:48;93817.38;;;13.65;30.13
6433;BME280;3249;42.690;23.260;2023-03-14T12:16:34;93810.56;;;13.86;30.06
6433;BME280;3249;42.690;23.260;2023-03-14T12:22:21;93788.09;;;13.92;30.23
6433;BME280;3249;42.690;23.260;2023-03-14T12:24:55;93797.50;;;13.39;30.20
6433;BME280;3249;42.690;23.260;2023-03-14T12:27:46;93781.63;;;13.31;30.62
6433;BME280;3249;42.690;23.260;2023-03-14T12:30:25;93786.06;;;13.62;30.50
6433;BME280;3249;42.690;23.260;2023-03-14T12:36:04;93776.94;;;13.86;29.62
6433;BME280;3249;42.690;23.260;2023-03-14T12:38:52;93784.59;;;13.76;29.29
6433;BME280;3249;42.690;23.260;2023-03-14T12:41:26;93766.78;;;13.48;29.70
6433;BME280;3249;42.690;23.260;2023-03-14T12:43:56;93770.59;;;13.72;29.91
6433;BME280;3249;42.690;23.260;2023-03-14T12:46:47;93750.88;;;13.98;29.37
6433;BME280;3249;42.690;23.260;2023-03-14T12:49:16;93760.84;;;14.21;28.94
6433;BME280;3249;42.690;23.260;2023-03-14T12:51:47;93751.22;;;14.11;29.22
6433;BME280;3249;42.690;23.260;2023-03-14T12:54:32;93742.97;;;13.77;29.35
6433;BME280;3249;42.690;23.260;2023-03-14T12:57:22;93731.75;;;13.62;29.31
6433;BME280;3249;42.690;23.260;2023-03-14T12:59:56;93727.88;;;13.64;29.79
6433;BME280;3249;42.690;23.260;2023-03-14T13:02:28;93730.06;;;13.82;28.89
6433;BME280;3249;42.690;23.260;2023-03-14T13:05:05;93729.69;;;14.01;28.47
6433;BME280;3249;42.690;23.260;2023-03-14T13:08:06;93712.41;;;14.16;28.22
6433;BME280;3249;42.690;23.260;2023-03-14T13:10:45;93717.09;;;14.19;28.45
6433;BME280;3249;42.690;23.260;2023-03-14T13:13:20;93718.78;;;13.98;28.14
6433;BME280;3249;42.690;23.260;2023-03-14T13:15:54;93713.91;;;14.02;28.38
6433;BME280;3249;42.690;23.260;2023-03-14T13:18:32;93710.97;;;14.30;27.93
6433;BME280;3249;42.690;23.260;2023-03-14T13:21:05;93703.63;;;14.17;28.16
6433;BME280;3249;42.690;23.260;2023-03-14T13:23:39;93684.16;;;14.10;27.98
6433;BME280;3249;42.690;23.260;2023-03-14T13:26:13;93677.47;;;14.14;28.39
6433;BME280;3249;42.690;23.260;2023-03-14T13:28:43;93686.16;;;14.39;28.09
6433;BME280;3249;42.690;23.260;2023-03-14T13:31:22;93683.16;;;14.77;27.99
6433;BME280;3249;42.690;23.260;2023-03-14T13:33:59;93676.94;;;14.83;28.01
6433;BME280;3249;42.690;23.260;2023-03-14T13:36:29;93672.56;;;14.94;27.09
6433;BME280;3249;42.690;23.260;2023-03-14T13:39:02;93668.63;;;14.61;27.15
6433;BME280;3249;42.690;23.260;2023-03-14T13:41:33;93654.66;;;14.82;27.08
6433;BME280;3249;42.690;23.260;2023-03-14T13:44:05;93641.97;;;14.76;27.09
6433;BME280;3249;42.690;23.260;2023-03-14T13:46:36;93645.34;;;14.76;26.74
6433;BME280;3249;42.690;23.260;2023-03-14T13:49:10;93646.59;;;14.69;26.94
6433;BME280;3249;42.690;23.260;2023-03-14T13:51:40;93633.69;;;14.79;26.72
6433;BME280;3249;42.690;23.260;2023-03-14T13:54:17;93626.19;;;15.07;26.63
6433;BME280;3249;42.690;23.260;2023-03-14T13:56:47;93595.06;;;14.87;25.79
6433;BME280;3249;42.690;23.260;2023-03-14T13:59:23;93629.03;;;14.96;26.04